Latest Weather Observations for Frankston

IDV60801

Issued at 5:02 am EDT Thursday 29 January 2015 (issued every 30 minutes, with the page automatically refreshed every 10 minutes)

About weather observations | Map of weather stations | Latest weather observations for VIC | Other Formats
Station Details ID: 086371 Name: FRANKSTON AWS Lat: -38.15 Lon: 145.12 Height: 6.0 m
Data from the previous 72 hours. | See also: Recent months at Frankston
Date/Time
EDT
Temp
°C
App
Temp
°C
Dew
Point
Rel
Hum
%
Delta-T
°C
Wind Press
QNH
hPa
Press
MSL
hPa
Rain
since 9 am
mm
Dir
 
Spd
km/h
Gust
km/h
Spd
kts
Gust
kts
29/05:00am 12.9 12.1 9.5 80 1.7 SSE 4 7 2 4 - - -
29/04:30am 12.9 12.1 9.5 80 1.7 S 4 9 2 5 - - -
29/04:00am 13.1 12.2 9.2 77 2.0 S 4 7 2 4 - - -
29/03:30am 13.6 12.3 9.3 75 2.2 SSE 6 9 3 5 - - -
29/03:00am 13.8 12.9 9.3 74 2.3 SSE 4 7 2 4 - - -
29/02:30am 14.1 12.8 9.1 72 2.5 SSE 6 9 3 5 - - -
29/02:00am - - - - - SE 7 13 4 7 - - -
29/01:30am - - - - - SE 7 13 4 7 - - -
29/01:00am 15.0 13.6 9.6 70 2.8 SE 7 15 4 8 - - -
29/12:30am 15.3 13.9 9.4 68 3.0 SE 7 19 4 10 - - -
29/12:00am 15.5 13.6 9.0 65 3.3 ESE 9 19 5 10 - - -
 
Date/Time
EDT
Temp
°C
App
Temp
°C
Dew
Point
Rel
Hum
%
Delta-T
°C
Wind Press
QNH
hPa
Press
MSL
hPa
Rain
since 9 am
mm
Dir
 
Spd
km/h
Gust
km/h
Spd
kts
Gust
kts
28/11:30pm 16.0 13.7 9.0 63 3.6 ESE 11 19 6 10 - - -
28/11:00pm 16.3 13.7 9.5 64 3.5 ESE 13 22 7 12 - - -
28/10:30pm 16.5 14.4 9.7 64 3.6 SE 11 20 6 11 - - -
28/10:00pm 16.9 14.7 9.3 61 3.9 SE 11 22 6 12 - - -
28/09:30pm 17.5 15.7 9.4 59 4.2 SSE 9 17 5 9 - - -
28/09:00pm 18.1 16.2 8.9 55 4.8 SE 9 20 5 11 - - -
28/08:30pm 18.8 15.8 7.6 48 5.7 SE 13 19 7 10 - - -
28/08:00pm 19.5 16.5 7.9 47 6.0 SE 13 26 7 14 - - -
28/07:30pm 19.6 16.9 10.3 55 5.0 SSE 15 28 8 15 - - -
28/07:00pm 19.8 16.6 10.0 53 5.3 SSE 17 35 9 19 - - -
28/06:30pm 20.1 16.3 9.9 52 5.5 SSE 20 37 11 20 - - -
28/06:00pm 20.5 16.9 10.0 51 5.6 S 19 33 10 18 - - -
28/05:30pm 20.8 16.8 10.3 51 5.7 SSE 22 43 12 23 - - -
28/05:00pm 21.1 17.5 10.6 51 5.7 SSE 20 35 11 19 - - -
28/04:30pm 22.0 19.1 12.3 54 5.5 SSE 19 41 10 22 - - -
28/04:00pm 21.7 18.3 11.4 52 5.7 SSE 20 43 11 23 - - -
28/03:30pm 22.1 19.2 10.9 49 6.2 SSE 17 33 9 18 - - -
28/03:00pm 22.0 19.0 10.8 49 6.2 SE 17 35 9 19 - - -
28/02:30pm 22.4 18.7 7.8 39 7.6 SE 17 28 9 15 - - -
28/02:00pm 22.7 19.0 8.0 39 7.7 SE 17 30 9 16 - - -
28/01:30pm 22.8 19.3 8.9 41 7.4 SSE 17 32 9 17 - - -
28/01:00pm 22.6 18.7 8.7 41 7.4 SSE 19 35 10 19 - - -
28/12:30pm 21.9 18.1 9.1 44 6.8 SSE 19 35 10 19 - - -
28/12:00pm 21.0 17.2 9.9 49 6.0 SE 20 35 11 19 - - -
28/11:30am 20.1 16.8 10.8 55 5.1 SE 19 35 10 19 - - -
28/11:00am 19.4 16.7 10.4 56 4.8 SE 15 28 8 15 - - -
28/10:30am 18.6 15.5 10.4 59 4.4 ESE 17 28 9 15 - - -
28/10:00am 18.8 16.5 10.6 59 4.4 SE 13 22 7 12 - - -
28/09:30am 17.3 14.9 10.0 62 3.9 SE 13 22 7 12 - - -
28/09:00am 16.6 14.2 10.2 66 3.4 ESE 13 22 7 12 - - -
28/08:30am 15.9 13.9 10.2 69 3.0 SE 11 22 6 12 - - -
28/08:00am 14.7 13.6 9.9 73 2.5 SE 6 11 3 6 - - -
28/07:30am 13.5 12.1 9.0 74 2.3 SSE 6 9 3 5 - - -
28/07:00am 13.2 11.7 8.5 73 2.3 SSE 6 13 3 7 - - -
28/06:30am 13.1 11.5 8.6 74 2.2 SSE 7 11 4 6 - - -
28/06:00am 12.1 10.7 8.9 81 1.6 ESE 6 9 3 5 - - -
28/05:30am 12.1 10.7 8.9 81 1.6 E 6 15 3 8 - - -
28/05:00am 12.6 11.4 9.6 82 1.5 S 6 7 3 4 - - -
28/04:30am 12.3 11.0 9.1 81 1.6 SE 6 7 3 4 - - -
28/04:00am 12.7 11.4 9.2 79 1.8 SSE 6 7 3 4 - - -
28/03:30am 13.1 11.8 9.2 77 2.0 SSE 6 7 3 4 - - -
28/03:00am 13.2 11.8 8.9 75 2.2 SSE 6 6 3 3 - - -
28/02:30am 13.4 12.4 8.9 74 2.3 SSE 4 7 2 4 - - -
28/02:00am 14.1 12.8 9.1 72 2.5 S 6 9 3 5 - - -
28/01:30am 14.4 13.0 9.0 70 2.7 S 6 9 3 5 - - -
28/01:00am 14.7 13.2 9.1 69 2.9 S 7 11 4 6 - - -
28/12:30am 14.9 13.3 8.8 67 3.1 S 7 13 4 7 - - -
28/12:00am 15.0 13.4 8.7 66 3.2 SSE 7 13 4 7 - - -
 
Date/Time
EDT
Temp
°C
App
Temp
°C
Dew
Point
Rel
Hum
%
Delta-T
°C
Wind Press
QNH
hPa
Press
MSL
hPa
Rain
since 9 am
mm
Dir
 
Spd
km/h
Gust
km/h
Spd
kts
Gust
kts
27/11:30pm 14.7 13.1 8.6 67 3.1 SSE 7 13 4 7 - - -
27/11:00pm 14.6 13.2 8.8 68 2.9 S 6 13 3 7 - - -
27/10:30pm 14.5 13.0 8.5 67 3.0 S 6 11 3 6 - - -
27/10:00pm 14.6 12.9 8.3 66 3.2 S 7 15 4 8 - - -
27/09:30pm 14.8 13.1 8.5 66 3.2 S 7 13 4 7 - - -
27/09:00pm 15.1 13.4 8.3 64 3.4 S 7 17 4 9 - - -
27/08:30pm 15.7 13.2 8.2 61 3.8 S 11 24 6 13 - - -
27/08:00pm 16.2 13.3 8.2 59 4.0 S 13 28 7 15 - - -
27/07:30pm 16.6 12.7 7.3 54 4.6 S 17 28 9 15 - - -
27/07:00pm 17.4 13.5 7.2 51 5.1 SSW 17 30 9 16 - - -
27/06:30pm 18.0 14.9 7.4 50 5.3 S 13 28 7 15 - - -
27/06:00pm 18.1 14.7 7.5 50 5.4 S 15 28 8 15 - - -
27/05:30pm 17.5 13.3 7.5 52 5.0 SSW 19 33 10 18 - - -
27/05:00pm 17.9 14.2 7.9 52 5.1 SSW 17 33 9 18 - - -
27/04:30pm 18.4 14.9 8.7 53 5.0 S 17 35 9 19 - - -
27/04:00pm 17.8 13.9 7.2 50 5.3 S 17 30 9 16 - - -
27/03:30pm 18.1 14.2 6.9 48 5.6 S 17 28 9 15 - - -
27/03:00pm 18.0 14.5 7.4 50 5.3 SSE 15 24 8 13 - - -
27/02:30pm 17.5 13.8 7.8 53 4.9 S 17 28 9 15 - - -
27/02:00pm - - - - - S 17 32 9 17 - - -
27/01:30pm - - - - - S 15 22 8 12 - - -
27/01:00pm - - - - - S 15 24 8 13 - - -
27/12:30pm - - - - - S 13 26 7 14 - - -
27/12:00pm - - - - - S 17 28 9 15 - - -
27/11:30am - - - - - S 13 24 7 13 - - -
27/11:00am - - - - - SSE 13 24 7 13 - - -
27/10:30am - - - - - S 11 22 6 12 - - -
27/10:00am - - - - - SSE 11 22 6 12 - - -
27/09:30am - - - - - SSE 13 20 7 11 - - -
27/09:00am - - - - - S 11 20 6 11 - - -
27/08:30am - - - - - S 11 19 6 10 - - -
27/08:00am - - - - - SSE 9 17 5 9 - - -
27/07:30am - - - - - SSE 7 17 4 9 - - -
27/07:00am - - - - - SSE 7 13 4 7 - - -
27/06:30am - - - - - SSE 6 9 3 5 - - -
27/06:00am - - - - - S 6 9 3 5 - - -
27/05:30am 12.5 11.3 8.0 74 2.2 SSE 4 6 2 3 - - -
27/05:00am 12.6 10.8 8.1 74 2.2 SSE 7 11 4 6 - - -
27/04:30am 12.6 11.0 7.9 73 2.3 SSE 6 11 3 6 - - -
27/04:00am 12.4 11.1 7.5 72 2.4 SSE 4 6 2 3 - - -
27/03:30am 12.5 11.6 7.6 72 2.4 SSE 2 6 1 3 - - -
27/03:00am 12.6 11.3 7.5 71 2.5 SSE 4 9 2 5 - - -
27/02:30am 12.9 11.6 7.8 71 2.5 SSE 4 7 2 4 - - -
27/02:00am 13.1 11.8 7.8 70 2.6 SE 4 7 2 4 - - -
27/01:30am 13.3 12.0 7.7 69 2.7 SE 4 9 2 5 - - -
27/01:00am - - - - - SE 6 13 3 7 - - -
27/12:30am 13.6 12.3 7.8 68 2.9 SE 4 9 2 5 - - -
27/12:00am 13.9 12.1 7.9 67 3.0 ESE 7 13 4 7 - - -
 
Date/Time
EDT
Temp
°C
App
Temp
°C
Dew
Point
Rel
Hum
%
Delta-T
°C
Wind Press
QNH
hPa
Press
MSL
hPa
Rain
since 9 am
mm
Dir
 
Spd
km/h
Gust
km/h
Spd
kts
Gust
kts
26/11:30pm - - - - - SE 7 15 4 8 - - -
26/11:00pm - - - - - SE 7 13 4 7 - - -
26/10:30pm - - - - - SSE 7 13 4 7 - - -
26/10:00pm - - - - - SSE 9 17 5 9 - - -
26/09:30pm - - - - - SSE 9 22 5 12 - - -
26/09:00pm - - - - - SSE 6 15 3 8 - - -
26/08:30pm 15.6 13.3 7.4 58 4.1 S 9 17 5 9 - - -
26/08:00pm 16.2 13.3 6.6 53 4.7 S 11 19 6 10 - - -
26/07:30pm 16.9 13.2 6.1 49 5.3 S 15 28 8 15 - - -
26/07:00pm 16.9 13.5 6.1 49 5.3 S 13 20 7 11 - - -
26/06:30pm 16.9 12.7 5.5 47 5.5 S 17 28 9 15 - - -
26/06:00pm - - - - - S 17 28 9 15 - - -
26/05:30pm - - - - - SSW 19 33 10 18 - - -
26/05:00pm - - - - - SSW 17 32 9 17 - - -
26/04:30pm - - - - - SSW 19 32 10 17 - - -
26/04:00pm - - - - - SSW 17 32 9 17 - - -
26/03:30pm - - - - - S 13 24 7 13 - - -
26/03:00pm - - - - - SSW 15 26 8 14 - - -
26/02:30pm - - - - - S 11 24 6 13 - - -
26/02:00pm - - - - - SSW 15 26 8 14 - - -
26/01:30pm - - - - - SSW 9 17 5 9 - - -
26/01:00pm - - - - - SSW 11 17 6 9 - - -
26/12:30pm - - - - - SW 15 24 8 13 - - -
26/12:00pm - - - - - SSW 9 19 5 10 - - -
26/11:30am - - - - - SSW 13 19 7 10 - - -
26/11:00am 17.2 13.9 6.4 49 5.3 SE 13 24 7 13 - - -
26/10:30am 17.5 14.5 5.8 46 5.7 SSE 11 19 6 10 - - -
26/10:00am 16.5 14.6 6.6 52 4.9 SW 6 13 3 7 - - -
26/09:30am 15.3 14.4 7.6 60 3.8 S 2 6 1 3 - - -
26/09:00am 14.8 13.5 7.6 62 3.6 S 4 6 2 3 - - -
26/08:30am 14.8 12.8 7.1 60 3.8 SSW 7 13 4 7 - - -
26/08:00am 14.6 13.0 8.8 68 2.9 WSW 7 9 4 5 - - -
26/07:30am 14.0 12.0 6.4 60 3.6 SSW 6 11 3 6 - - -
26/07:00am 13.8 12.3 6.7 62 3.4 S 4 7 2 4 - - -
26/06:30am 13.5 12.4 8.4 71 2.5 SSE 4 6 2 3 - - -
26/06:00am 13.7 12.6 8.5 71 2.6 S 4 7 2 4 - - -
26/05:30am - - - - - WSW 7 13 4 7 - - -

Other Formats:

Comma delimited format used in spreadsheet applications
http://www.bom.gov.au/fwo/IDV60801/IDV60801.94871.axf

JavaScript Object Notation format (JSON) in row-major order
http://www.bom.gov.au/fwo/IDV60801/IDV60801.94871.json